Tiempo atmosférico en la estación meteorológica de Puerto De La Cruz, Santa Cruz de Tenerife (25 m.)



Fecha
DESCASC
Temp. máxima en grados centígrados (hora)
DESCASC
Temp. mínima en grados centígrados (hora)
DESCASC
Temp. media en grados centígrados
DESCASC
Racha de viento máxima en m/sg (hora)
DESCASC
Velocidad máxima media en intervalos de 10 minutos(hora)
DESCASC
Precipitaciones diarias en mm
DESCASC
Precipitaciones de 00:00 a 06:00 en mm
DESCASC
Precipitaciones de 06:00 a 12:00 en mm
DESCASC
Precipitaciones de 12:00 a 18:00 en mm
DESCASC
Precipitaciones de 18:00 a 24:00 en mm
DESCASC
05-12-2019 19.4 (17:40) 16.2 (20:00) 17.8 11.11 (08:50) 7.22 (23:50) 17.6 3.4 0.8 8 5.4
04-12-2019 22 (13:00) 17.6 (23:59) 19.8 9.17 (23:10) 5.56 (23:10) 0.5 0 0 0 0.5
03-12-2019 23.1 (14:50) 16.6 (02:20) 19.9 10.56 (01:10) 7.22 (01:10) 0.2 0.1 0.1 0 0
02-12-2019 23.3 (12:10) 17.4 (00:00) 20.3 9.17 (23:20) 5 (23:30) 0 0 0 0 0
01-12-2019 23.6 (13:00) 17.3 (00:00) 20.4 9.44 (16:10) 7.22 (16:10) 0 0 0 0 0
30-11-2019 23.7 (15:20) 17.5 (00:00) 20.6 4.17 (12:10) 2.5 (12:40) 0 0 0 0 0
29-11-2019 24.4 (12:50) 17.4 (00:00) 20.9 6.39 (15:00) 3.06 (15:10) 0 0 0 0 0
28-11-2019 23.2 (14:30) 18.6 (04:10) 20.9 6.39 (18:10) 5 (18:20) 0 0 0 0 0
27-11-2019 21.8 (13:00) 18.1 (00:00) 19.9 7.78 (11:40) 6.11 (13:40) 0 0 0 0 0
26-11-2019 22.2 (11:10) 19.2 (00:00) 20.7 7.5 (21:10) 5.56 (21:20) 0 0 0 0 0
25-11-2019 24.6 (14:20) 17.9 (00:50) 21.3 6.67 (18:10) 5 (18:30) 0 0 0 0 0
24-11-2019 24.2 (13:10) 18 (00:00) 21.1 6.67 (10:40) 5.28 (10:50) 0 0 0 0 0
23-11-2019 26.8 (12:10) 18.8 (00:00) 22.8 5 (07:40) 3.89 (11:30) 0 0 0 0 0
22-11-2019 23.4 (15:20) 18.6 (00:00) 21 6.11 (03:30) 2.78 (06:40) 2.8 2.8 0 0 0
21-11-2019 23.2 (12:20) 18.8 (00:00) 21 6.39 (18:00) 3.06 (13:50) 0 0 0 0 0
20-11-2019 22.6 (14:40) 16.8 (05:30) 19.7 5.28 (15:10) 3.06 (15:10) 0 0 0 0 0
19-11-2019 22.4 (13:00) 17 (00:00) 19.7 7.78 (02:30) 2.78 (01:50) 0 0 0 0 0
18-11-2019 24.2 (12:50) 17.5 (00:00) 20.9 9.44 (13:50) 7.5 (13:50) 0.1 0 0.1 0 0
17-11-2019 22.2 (12:00) 16.8 (00:00) 19.5 13.33 (13:20) 10.56 (13:30) 0.6 0.4 0 0 0.2
16-11-2019 23.4 (13:00) 16.4 (00:00) 19.9 11.39 (15:00) 7.78 (15:00) 4.6 4.5 0.1 0 0
15-11-2019 21.1 (09:50) 17.5 (00:00) 19.3 11.94 (10:10) 8.61 (02:00) 4.3 0.2 2.3 1 0.8
14-11-2019 23.2 (15:00) 19.2 (00:00) 21.2 11.94 (16:50) 8.89 (16:50) 0.7 0 0.2 0.1 0.4
13-11-2019 24 (14:50) 18 (00:00) 21 10.28 (16:10) 7.78 (16:10) 0 0 0 0 0
12-11-2019 23.5 (15:20) 19.1 (00:00) 21.3 11.11 (17:10) 7.22 (15:10) 0.8 0 0.3 0.4 0.1
11-11-2019 24.2 (13:50) 19.6 (07:30) 21.9 11.11 (13:20) 8.61 (13:20) 0.1 0 0 0 0.1
10-11-2019 23.9 (16:10) 18.2 (00:00) 21.1 14.17 (15:30) 10.83 (15:40) 0.3 0.3 0 0 0
09-11-2019 23.1 (12:10) 18.6 (00:00) 20.9 13.61 (13:30) 10.28 (13:30) 1.6 0 0.2 0.3 1.1
08-11-2019 24.2 (10:40) 18.8 (04:30) 21.5 17.5 (14:00) 13.06 (14:10) 0 0 0 0 0

Gráficas

Temp. máximas Temp. mínimas Temp. medias Precipitaciones Rachas de viento máximas Velocidades máximas media en intervalos de 10 minutos

Datos horarios

Fecha y hora oficial Temperatura (ºC) Velocidad del viento (km/h) Dirección del viento Racha (km/h) Dirección de racha Precipitación (mm) Presión (hPa) Tendencia (hPa) Humedad (%)
2019-12-07 23:00:00 18.7 8 Sudeste 17 Sudeste 0 1024.7 1.2 69
2019-12-07 22:00:00 18.8 7 Sudeste 21 Sudeste 0 1024.5 1.8 71
2019-12-07 21:00:00 19.3 8 Sudeste 17 Sudeste 0 1024.1 2.1 73
2019-12-07 20:00:00 18.4 6 Sudeste 15 Sudeste 0 1023.5 2.1 72
2019-12-07 19:00:00 19.3 5 Sudeste 26 Nordeste 0 1022.7 1.7 75
2019-12-07 18:00:00 20 20 Nordeste 27 Nordeste 0 1022 1 75
2019-12-07 17:00:00 20.6 18 Nordeste 25 Nordeste 0 1021.4 0.7 74
2019-12-07 16:00:00 21.4 22 Nordeste 31 Nordeste 0 1021 -0.9 72
2019-12-07 15:00:00 21 23 Nordeste 31 Nordeste 0 1021 -1.5 73
2019-12-07 14:00:00 21.3 20 Nordeste 31 Nordeste 0 1020.7 -2.3 76
2019-12-07 13:00:00 20.8 20 Nordeste 27 Nordeste 0 1021.9 -1 79
2019-12-07 12:00:00 19.8 4 Sudeste 19 Este 0 1022.5 -0.1 81
2019-12-07 11:00:00 19 3 Sudeste 17 Este 2.1 1023 1.3 86
2019-12-07 10:00:00 18.4 5 Sudeste 18 Sur 0 1022.9 1.9 75
2019-12-07 09:00:00 17.1 9 Sur 18 Sudeste 0 1022.6 2.1 76
2019-12-07 08:00:00 17.7 7 Sudeste 16 Sudeste 0 1021.7 1.8 73
2019-12-07 07:00:00 17.1 8 Sur 15 Sudeste 0 1021 0.9 80
2019-12-07 06:00:00 17.4 7 Sur 13 Sur 0.4 1020.5 0.5 87
2019-12-07 05:00:00 18.2 4 Sudeste 12 Sudeste 0 1019.9 -0.2 79
2019-12-07 04:00:00 17.7 5 Sur 14 Sur 0 1020.1 0.2 81
2019-12-07 03:00:00 17.8 5 Sur 15 Sur 0 1020 0.3 83
2019-12-07 02:00:00 18 7 Sur 15 Sudeste 1.9 1020.1 0.5 87
2019-12-07 01:00:00 18.5 0 Calma 25 Nordeste 0.1 1019.9 0.2 83
2019-12-07 00:00:00 19.3 17 Nordeste 28 Norte 0 1019.7 0.6 80
2019-12-06 23:00:00 18.9 3 Nordeste 18 Sur 0 1019.6 0.9 81
2019-12-06 22:00:00 17.9 5 Sur 33 Nordeste 0.1 1019.7 1.5 86
2019-12-06 21:00:00 19.3 3 Oeste 23 Norte 0 1019.1 1.4 76
2019-12-06 20:00:00 19.9 13 Norte 22 Norte 0 1018.7 1.4 67
2019-12-06 19:00:00 19.8 14 Norte 24 Norte 0 1018.2 1.2 68
2019-12-06 18:00:00 19.8 12 Norte 28 Norte 0.1 1017.7 0.8 71
2019-12-06 17:00:00 20.1 3 Noroeste 13 Sudoeste 0 1017.3 0.1 71
2019-12-06 16:00:00 20.7 4 Sur 11 Este 0 1017 -0.6 71
2019-12-06 15:00:00 20.5 4 Sur 23 Nordeste 1.4 1016.9 -1.5 80
2019-12-06 14:00:00 18.8 13 Este 28 Nordeste 0.2 1017.2 -1 84
2019-12-06 13:00:00 20.1 9 Nordeste 20 Nordeste 0 1017.6 -0.3 72
2019-12-06 12:00:00 18.5 9 Sur 44 Nordeste 0.3 1018.4 1 81
2019-12-06 11:00:00 19.9 5 Sudeste 12 Sudeste 0 1018.2 1.3 65
2019-12-06 10:00:00 18.8 5 Sur 10 Sudeste 0 1017.9 1.9 72
2019-12-06 09:00:00 18.5 4 Sudoeste 14 Oeste 0 1017.4 1.4 69
2019-12-06 08:00:00 17 4 Sudeste 14 Sur 0.2 1016.9 1.8 77
2019-12-06 07:00:00 17.5 8 Sur 18 Sudoeste 0 1016 0.6 78
2019-12-06 06:00:00 16.3 8 Sur 22 Este 2.3 1016 0.7 84
2019-12-06 05:00:00 18 5 Sudoeste 14 Oeste 0 1015.1 -0.1 70
2019-12-06 04:00:00 17.2 8 Sur 28 Norte 0.3 1015.4 0.1 84
2019-12-06 03:00:00 18.5 3 Noroeste 20 Nordeste 0 1015.3 -0.5 80
2019-12-06 02:00:00 18.6 11 Norte 28 Norte 0 1015.2 -0.3 81
2019-12-06 01:00:00 18.9 18 Nordeste 35 Norte 0 1015.3 -0.3 74
2019-12-06 00:00:00 18.9 23 Norte 39 Norte 0.8 1015.8 0.5 71
2019-12-05 23:00:00 18.9 8 Noroeste 32 Norte 0.1 1015.5 0.3 80
2019-12-05 22:00:00 17.5 4 Sudoeste 18 Nordeste 0 1015.6 1.7 81
2019-12-05 21:00:00 16.7 6 Sur 20 Sur 0.9 1015.3 1.7 82
2019-12-05 20:00:00 16.3 12 Sur 39 Norte 3.6 1015.2 1.7 84
2019-12-05 19:00:00 19.4 9 Noroeste 20 Norte 0 1013.9 0.9 61
2019-12-05 18:00:00 19.2 8 Norte 31 Norte 0 1013.6 0.7 61
2019-12-05 17:00:00 18.9 2 Oeste 15 Sudoeste 0 1013.5 -0.3 70
2019-12-05 16:00:00 18.5 8 Sudoeste 21 Sudoeste 1.8 1013 -1.6 72
2019-12-05 15:00:00 19 4 Sudoeste 19 Sur 0.4 1012.9 -2.1 69
2019-12-05 14:00:00 17.3 9 Sur 30 Nordeste 4 1013.8 -2.1 85
2019-12-05 13:00:00 18 5 Sudoeste 22 Sudoeste 1.8 1014.6 -0.7 81
2019-12-05 12:00:00 18.7 6 Sudoeste 15 Sur 0.1 1015 0.3 72
2019-12-05 11:00:00 18 0 Calma 38 Norte 0.1 1015.9 1.8 86
2019-12-05 10:00:00 19 18 Norte 29 Norte 0 1015.3 1.6 65
2019-12-05 09:00:00 18.6 18 Norte 40 Norte 0.5 1014.7 1.7 70
2019-12-05 08:00:00 19.2 9 Norte 28 Norte 0 1014.1 0.7 60
2019-12-05 07:00:00 19.3 19 Norte 35 Nordeste 0.1 1013.7 -0.6 61
2019-12-05 06:00:00 18.9 9 Norte 25 Norte 0 1013 -2.1 63
2019-12-05 05:00:00 18.9 5 Noroeste 31 Norte 0 1013.4 -1.5 63
2019-12-05 04:00:00 17.9 10 Oeste 24 Sur 0.2 1014.3 -0.7 68
2019-12-05 03:00:00 17.7 4 Sur 37 Noroeste 0.4 1015.1 -0.4 62
2019-12-05 02:00:00 18.1 8 Noroeste 25 Nordeste 0.6 1014.9 0.5 81
2019-12-05 01:00:00 17.8 4 Noroeste 20 Sudoeste 2.2 1015 -0.2 96
2019-12-05 00:00:00 17.6 9 Oeste 33 Noroeste 0.5 1015.5 -0.5 96
2019-12-04 23:00:00 21.2 9 Oeste 26 Noroeste 0 1014.4 -1.1 66
2019-12-04 22:00:00 19.7 6 Sur 19 Sur 0 1015.2 -0.4 70
2019-12-04 21:00:00 19.2 7 Oeste 27 Noroeste 0 1016 0.7 77
2019-12-04 20:00:00 20 4 Sur 21 Noroeste 0 1015.5 -0.1 68
2019-12-04 19:00:00 20.3 8 Noroeste 16 Noroeste 0 1015.6 -0.3 68
2019-12-04 18:00:00 20.5 4 Noroeste 11 Oeste 0 1015.3 1.1 68
2019-12-04 17:00:00 20.4 6 Noroeste 17 Noroeste 0 1015.6 -0.4 68
2019-12-04 16:00:00 20.5 9 Noroeste 16 Noroeste 0 1015.9 -0.2 68
2019-12-04 15:00:00 21.4 5 Oeste 14 Noroeste 0 1014.2 -3.9 61
2019-12-04 14:00:00 21.4 6 Oeste 26 Noroeste 0 1016 -2.1 63
2019-12-04 13:00:00 21.1 8 Noroeste 19 Noroeste 0 1016.1 -2 58
2019-12-04 12:00:00 21.1 5 Noroeste 14 Norte 0 1018.1 0.4 59
2019-12-04 11:00:00 20.9 8 Noroeste 15 Noroeste 0 1018.1 0.9 54
2019-12-04 10:00:00 20.9 3 Sudoeste 11 Sur 0 1018.1 0.9 52
2019-12-04 09:00:00 19.4 8 Sur 15 Sur 0 1017.7 1.1 54
2019-12-04 08:00:00 18.9 0 Calma 13 Sudoeste 0 1017.2 0.4 56
2019-12-04 07:00:00 18.3 7 Sur 15 Sur 0 1017.2 0.3 59
2019-12-04 06:00:00 18.4 5 Sur 10 Sur 0 1016.6 -0.7 59
2019-12-04 05:00:00 18.3 4 Sur 9 Sudeste 0 1016.8 -0.5 65
2019-12-04 04:00:00 18.7 4 Sur 9 Sur 0 1016.9 -0.4 67
2019-12-04 03:00:00 18.4 4 Sur 8 Sur 0 1017.3 -0.6 70
2019-12-04 02:00:00 18.6 5 Sur 9 Sur 0 1017.3 -1.2 66
2019-12-04 01:00:00 18.5 5 Sur 12 Sur 0 1017.3 -0.7 65
2019-12-04 00:00:00 18.4 7 Sur 17 Sudeste 0 1017.9 0 68
2019-12-03 23:00:00 18.5 6 Este 24 Este 0 1018.5 1.4 75
2019-12-03 22:00:00 18.3 7 Sur 12 Sur 0 1018 1.6 63
2019-12-03 21:00:00 17.9 6 Sur 13 Sur 0 1017.9 2.3 68
2019-12-03 20:00:00 17.7 7 Sur 13 Sur 0 1017.1 1.8 68
2019-12-03 19:00:00 18.5 4 Sur 10 Sudeste 0 1016.4 1.4 68
2019-12-03 18:00:00 20.6 5 Nordeste 9 Nordeste 0 1015.6 0.7 61
2019-12-03 17:00:00 21.6 3 Nordeste 15 Nordeste 0 1015.3 0.4 57
2019-12-03 16:00:00 22.2 13 Nordeste 20 Nordeste 0 1015 -0.3 57
2019-12-03 15:00:00 21.5 10 Nordeste 20 Norte 0 1014.9 -1.1 60
2019-12-03 14:00:00 22.6 8 Nordeste 17 Norte 0 1014.9 -1.6 55
2019-12-03 13:00:00 21.6 2 Norte 15 Este 0 1015.3 -1.4 57
2019-12-03 12:00:00 21.2 8 Este 16 Nordeste 0 1016 -0.7 59
2019-12-03 11:00:00 20.2 3 Sudeste 17 Sur 0 1016.5 0.1 64
2019-12-03 10:00:00 18.5 6 Sur 23 Sur 0 1016.7 1.8 74
2019-12-03 09:00:00 16.9 9 Sur 20 Sur 0 1016.7 2.1 92
2019-12-03 08:00:00 17.6 18 Nordeste 35 Norte 0 1016.4 2 91
2019-12-03 07:00:00 17.9 10 Sur 27 Sudeste 0.1 1014.9 0.1 76
2019-12-03 06:00:00 18.7 5 Norte 20 Noroeste 0 1014.6 0.3 77
2019-12-03 05:00:00 17.8 9 Sur 20 Sudoeste 0 1014.4 -0.7 77
2019-12-03 04:00:00 17.1 9 Sur 21 Noroeste 0 1014.8 -0.1 89
2019-12-03 03:00:00 17.2 8 Sur 25 Sur 0.1 1014.3 -0.8 84
2019-12-03 02:00:00 17.3 4 Sudoeste 38 Norte 0 1015.1 -0.1 87
2019-12-03 01:00:00 17.7 14 Norte 37 Norte 0 1014.9 -0.4 86
2019-12-03 00:00:00 19.2 5 Norte 33 Norte 0 1015.1 -0.1 75
2019-12-02 23:00:00 18.9 4 Sur 18 Sur 0 1015.2 0.3 72
2019-12-02 22:00:00 19.1 2 Sur 14 Norte 0 1015.3 1 80
2019-12-02 21:00:00 19.4 3 Sudoeste 13 Sur 0 1015.2 0.9 71
2019-12-02 20:00:00 19.3 6 Sur 13 Sudoeste 0 1014.9 1 71
2019-12-02 19:00:00 19.6 0 Calma 14 Sur 0 1014.3 0.1 71
2019-12-02 18:00:00 19.6 4 Sudeste 12 Sudeste 0 1014.3 0.2 71
2019-12-02 17:00:00 20.4 4 Oeste 11 Noroeste 0 1013.9 -0.7 65
2019-12-02 16:00:00 20.4 0 Calma 15 Sur 0 1014.2 -1.1 70
2019-12-02 15:00:00 20.9 0 Calma 22 Norte 0 1014.1 -1.7 70
2019-12-02 14:00:00 20.4 13 Norte 22 Norte 0 1014.6 -1.9 73
2019-12-02 13:00:00 20.9 8 Norte 12 Nordeste 0 1015.3 -1.6 72
2019-12-02 12:00:00 23.2 9 Nordeste 12 Este 0 1015.8 -1.3 69
2019-12-02 11:00:00 21.3 7 Norte 13 Norte 0 1016.5 -0.6 72
2019-12-02 10:00:00 21.4 0 Calma 10 Noroeste 0 1016.9 -0.2 69
2019-12-02 09:00:00 19.3 3 Sur 17 Sur 0 1017.1 0.1 63
2019-12-02 08:00:00 18.3 6 Sur 13 Sur 0 1017.1 0 70
2019-12-02 07:00:00 18.2 5 Sur 10 Sur 0 1017.1 0 76
2019-12-02 06:00:00 19 6 Sur 13 Sur 0 1017 -0.4 75
2019-12-02 05:00:00 18.6 8 Sur 15 Sudeste 0 1017.1 -1.1 67
2019-12-02 04:00:00 18.9 7 Sur 18 Sudeste 0 1017.1 -1.2 65
2019-12-02 03:00:00 19.2 9 Sur 17 Sur 0 1017.4 -1.6 66
2019-12-02 02:00:00 18 4 Sudeste 15 Sudeste 0 1018.2 -0.9 71
2019-12-02 01:00:00 18.1 5 Sur 16 Sur 0 1018.3 -0.5 70
2019-12-02 00:00:00 17.6 7 Sur 13 Sur 0 1019 0.2 71
2019-12-01 23:00:00 17.9 8 Sur 14 Sur 0 1019.1 0.4 73
2019-12-01 22:00:00 18.3 8 Sur 15 Sur 0 1018.8 0.2 72
2019-12-01 21:00:00 19.1 5 Sur 12 Sur 0 1018.8 0.4 72
2019-12-01 20:00:00 20.1 5 Este 18 Este 0 1018.7 0.4 72
2019-12-01 19:00:00 20.5 15 Este 27 Nordeste 0 1018.6 0.6 77
2019-12-01 18:00:00 20.9 18 Nordeste 26 Nordeste 0 1018.4 0.5 77
2019-12-01 17:00:00 21.3 18 Nordeste 34 Este 0 1018.3 0.3 72
2019-12-01 16:00:00 21.3 25 Nordeste 32 Nordeste 0 1018 -0.6 73
2019-12-01 15:00:00 22.9 24 Nordeste 30 Este 0 1017.9 -1.8 69
2019-12-01 14:00:00 22.7 24 Nordeste 30 Nordeste 0 1018 -2.5 68
2019-12-01 13:00:00 23 19 Nordeste 27 Nordeste 0 1018.6 -1.6 64
2019-12-01 12:00:00 22.1 5 Nordeste 9 Este 0 1019.7 -0.6 67
2019-12-01 11:00:00 21.4 2 Norte 7 Norte 0 1020.5 0.6 72
2019-12-01 10:00:00 21.3 0 Calma 8 Sur 0 1020.2 0.8 74
2019-12-01 09:00:00 18.3 4 Sur 10 Sur 0 1020.3 1.4 85
2019-12-01 08:00:00 17.4 6 Sur 12 Sur 0 1019.9 1.4 87
2019-12-01 07:00:00 17.9 4 Sur 8 Sudeste 0 1019.4 0.8 87
2019-12-01 06:00:00 18.6 4 Sur 7 Sur 0 1018.9 0.1 89
2019-12-01 05:00:00 18 5 Sur 11 Sur 0 1018.5 -0.4 89
2019-12-01 04:00:00 18 6 Sur 11 Sur 0 1018.6 -0.4 89
2019-12-01 03:00:00 18.7 5 Sur 9 Sudeste 0 1018.8 -0.2 86
2019-12-01 02:00:00 20 5 Sur 10 Sur 0 1018.9 -0.3 85
2019-12-01 01:00:00 19.8 4 Sur 8 Sudeste 0 1019 -0.3 87
2019-12-01 00:00:00 19.5 3 Sur 6 Sur 0 1019 0.1 87
2019-11-30 23:00:00 20.5 3 Sur 9 Sudoeste 0 1019.2 0.8 88
2019-11-30 22:00:00 20.1 3 Sudoeste 6 Sudoeste 0 1019.3 1.6 89
2019-11-30 21:00:00 20.6 3 Sur 7 Sur 0 1018.9 1.6 89
2019-11-30 20:00:00 20.9 2 Sur 6 Sur 0 1018.4 1.9 86
2019-11-30 19:00:00 21.6 0 Calma 8 Oeste 0 1017.7 1 85
2019-11-30 18:00:00 22 5 Sudoeste 12 Oeste 0 1017.3 0.9 84
2019-11-30 17:00:00 22.8 2 Noroeste 8 Noroeste 0 1016.5 -0.2 80
2019-11-30 16:00:00 22.9 4 Norte 8 Nordeste 0 1016.7 -0.8 80
2019-11-30 15:00:00 22.4 4 Norte 13 Noroeste 0 1016.4 -1.4 81
2019-11-30 14:00:00 22.7 8 Oeste 14 Oeste 0 1016.7 -1.2 80
2019-11-30 13:00:00 22.9 4 Norte 15 Sudoeste 0 1017.5 -0.2 83
2019-11-30 12:00:00 22.2 7 Oeste 15 Oeste 0 1017.8 0.4 83
2019-11-30 11:00:00 21.6 7 Oeste 13 Noroeste 0 1017.9 0.4 84
2019-11-30 10:00:00 21.3 0 Calma 7 Sudoeste 0 1017.7 1 85
2019-11-30 09:00:00 19.8 2 Sur 7 Sur 0 1017.4 0.8 79
2019-11-30 08:00:00 17.9 5 Sur 8 Sur 0 1017.5 0.9 85
2019-11-30 07:00:00 18.2 5 Sur 11 Sur 0 1016.7 0.5 86
2019-11-30 06:00:00 17.7 4 Sur 9 Sudeste 0 1016.6 0.2 81
2019-11-30 05:00:00 18.1 5 Sur 11 Sudeste 0 1016.6 0.2 76
2019-11-30 04:00:00 18.5 3 Sur 13 Sur 0 1016.2 0 71
2019-11-30 03:00:00 18.2 5 Sur 8 Sur 0 1016.4 0.1 74
2019-11-30 02:00:00 18.8 4 Sur 10 Sur 0 1016.4 0.1 81
2019-11-30 01:00:00 18.7 4 Sur 13 Sudeste 0 1016.2 0.1 78
2019-11-30 00:00:00 19 5 Sur 14 Sur 0 1016.3 0.6 78
2019-11-29 23:00:00 19.3 5 Sur 14 Sudeste 0 1016.3 1.4 80
2019-11-29 22:00:00 19.9 4 Sur 9 Sur 0 1016.1 1.7 81
2019-11-29 21:00:00 20.4 3 Sur 11 Sur 0 1015.7 1.7 83
2019-11-29 20:00:00 20.5 5 Sur 10 Sur 0 1014.9 2 89
2019-11-29 19:00:00 21.8 0 Calma 8 Oeste 0 1014.4 1.3 86
2019-11-29 18:00:00 21.8 5 Noroeste 6 Noroeste 0 1014 0.9 88
2019-11-29 17:00:00 24.3 3 Nordeste 9 Noroeste 0 1012.9 -0.5 77
2019-11-29 16:00:00 22.9 5 Noroeste 21 Sudoeste 0 1013.1 -0.3 82
2019-11-29 15:00:00 22.9 10 Oeste 23 Sudoeste 0 1013.1 -1.4 77
2019-11-29 14:00:00 22.5 5 Noroeste 9 Noroeste 0 1013.4 -1.6 76
2019-11-29 13:00:00 23.6 4 Nordeste 20 Norte 0 1013.4 -1.6 70
2019-11-29 12:00:00 22.2 5 Oeste 15 Noroeste 0 1014.5 -0.3 74
2019-11-29 11:00:00 21.3 8 Noroeste 13 Noroeste 0 1015 0 76
2019-11-29 10:00:00 21.3 3 Oeste 9 Sur 0 1015 -0.1 77
2019-11-29 09:00:00 19.2 4 Sur 11 Sur 0 1014.8 0.5 81
2019-11-29 08:00:00 17.7 5 Sur 13 Sur 0 1015 0.5 78
2019-11-29 07:00:00 17.7 5 Sur 12 Sur 0 1015.1 0.6 83
2019-11-29 06:00:00 18 3 Sur 9 Sur 0 1014.3 -0.3 83
2019-11-29 05:00:00 17.9 4 Sur 13 Sur 0 1014.5 0 84
2019-11-29 04:00:00 18.1 6 Sur 14 Sudeste 0 1014.5 -0.1 82
2019-11-29 03:00:00 18 5 Sur 13 Sudeste 0 1014.6 -0.2 83
2019-11-29 02:00:00 19 0 Calma 8 Sudeste 0 1014.5 -0.6 82
2019-11-29 01:00:00 19.1 2 Sur 6 Sur 0 1014.6 -0.4 84
2019-11-29 00:00:00 19.3 3 Sur 8 Sur 0 1014.8 -0.1 83
2019-11-28 23:00:00 19.6 2 Sur 5 Sur 0 1015.1 0.8 82
2019-11-28 22:00:00 20.2 2 Sur 5 Sur 0 1015 0.9 81
2019-11-28 21:00:00 20.2 0 Calma 7 Sur 0 1014.9 1.3 82
2019-11-28 20:00:00 20.8 3 Este 19 Nordeste 0 1014.3 1.1 82
2019-11-28 19:00:00 20.8 12 Nordeste 23 Nordeste 0 1014.1 1.3 82
2019-11-28 18:00:00 21 16 Nordeste 21 Nordeste 0 1013.6 0.7 81
2019-11-28 17:00:00 21.5 13 Nordeste 21 Nordeste 0 1013.2 -0.2 77
2019-11-28 16:00:00 22 12 Nordeste 21 Nordeste 0 1012.8 -1.3 73
2019-11-28 15:00:00 22.2 10 Nordeste 18 Nordeste 0 1012.9 -2.3 72
2019-11-28 14:00:00 21.6 7 Nordeste 12 Norte 0 1013.4 -2.3 70
2019-11-28 13:00:00 21.9 4 Noroeste 14 Oeste 0 1014.1 -1.3 69
2019-11-28 12:00:00 21.6 7 Oeste 18 Sudoeste 0 1015.2 -0.3 68
2019-11-28 11:00:00 21.1 6 Oeste 12 Oeste 0 1015.7 0.5 69
2019-11-28 10:00:00 21.9 0 Calma 8 Sudeste 0 1015.4 0.7 67
2019-11-28 09:00:00 19.7 4 Sur 12 Sur 0 1015.5 1.2 70
2019-11-28 08:00:00 19.4 5 Sur 12 Sur 0 1015.2 1 71
2019-11-28 07:00:00 19.3 3 Sur 12 Sur 0 1014.7 0.4 71
2019-11-28 06:00:00 18.8 5 Sur 12 Sudeste 0 1014.3 -0.1 71
2019-11-28 05:00:00 18.6 5 Sur 14 Sudeste 0 1014.2 -0.5 71
2019-11-28 04:00:00 18.8 6 Sur 12 Sur 0 1014.3 -0.8 72
2019-11-28 03:00:00 19.4 3 Sur 9 Sudoeste 0 1014.4 -1 72
2019-11-28 02:00:00 19.6 3 Sudoeste 9 Sur 0 1014.7 -1.2 73
2019-11-28 01:00:00 19.7 2 Sur 6 Sur 0 1015.1 -0.7 72
2019-11-28 00:00:00 20.2 0 Calma 9 Oeste 0 1015.4 -0.2 72
2019-11-27 23:00:00 20.2 3 Sudoeste 12 Sur 0 1015.9 0.6 71
2019-11-27 22:00:00 20.2 4 Sudeste 10 Sur 0 1015.8 0.9 71
2019-11-27 21:00:00 20.3 3 Sudeste 24 Nordeste 0 1015.6 1.1 73
2019-11-27 20:00:00 20.5 17 Este 27 Este 0 1015.3 1.2 78
2019-11-27 19:00:00 20.7 18 Nordeste 26 Nordeste 0 1014.9 0.9 78
2019-11-27 18:00:00 20.9 19 Nordeste 26 Nordeste 0 1014.5 0.4 78
2019-11-27 17:00:00 21.2 19 Nordeste 27 Nordeste 0 1014.1 -0.4 74
2019-11-27 16:00:00 21.8 21 Nordeste 27 Nordeste 0 1014 -1.2 75
2019-11-27 15:00:00 21.6 20 Nordeste 27 Nordeste 0 1014.1 -1.9 76
2019-11-27 14:00:00 21.5 21 Nordeste 28 Nordeste 0 1014.5 -2 75
2019-11-27 13:00:00 21.8 13 Nordeste 26 Norte 0 1015.2 -1.4 73
2019-11-27 05:00:00 19.5 5 Sudeste 25 Nordeste 0 1014.7 -0.7 72
2019-11-27 04:00:00 20.3 19 Nordeste 26 Este 0 1014.9 -0.9 77
2019-11-27 03:00:00 20.3 4 Sudeste 8 Sudeste 0 1015.3 -0.9 69
2019-11-27 02:00:00 20.2 3 Sudeste 9 Sudeste 0 1015.4 -1 69
2019-11-27 01:00:00 20.6 0 Calma 12 Este 0 1015.8 -0.4 73
2019-11-27 00:00:00 20.6 6 Este 14 Este 0 1016.2 0.1 73
2019-11-26 23:00:00 20.2 3 Sur 14 Nordeste 0 1016.4 0.3 71
2019-11-26 22:00:00 20.7 14 Este 27 Este 0 1016.2 0.6 75
2019-11-26 21:00:00 20.7 16 Nordeste 23 Nordeste 0 1016.1 0.8 77
2019-11-26 20:00:00 20.7 13 Este 19 Este 0 1016.1 1.4 77
2019-11-26 19:00:00 20.7 13 Nordeste 22 Nordeste 0 1015.6 0.7 78
2019-11-26 18:00:00 20.9 16 Nordeste 25 Nordeste 0 1015.3 0.5 77
2019-11-26 17:00:00 21.3 19 Nordeste 24 Este 0 1014.7 -0.5 77
2019-11-26 16:00:00 21.6 17 Nordeste 24 Nordeste 0 1014.9 -0.9 74
2019-11-26 15:00:00 21.7 19 Nordeste 24 Este 0 1014.8 -1.5 74
2019-11-26 14:00:00 21.9 18 Nordeste 24 Nordeste 0 1015.2 -1.5 74
2019-11-26 13:00:00 21.7 3 Norte 6 Noroeste 0 1015.8 -0.8 65
2019-11-26 12:00:00 21.4 2 Noroeste 6 Oeste 0 1016.3 -0.2 67
2019-11-26 11:00:00 21.8 0 Calma 6 Nordeste 0 1016.7 0.9 65
2019-11-26 10:00:00 21 3 Sudoeste 6 Oeste 0 1016.6 1 65
2019-11-26 09:00:00 20.3 3 Este 9 Sudeste 0 1016.5 1.2 68
2019-11-26 08:00:00 19.8 3 Sur 13 Sur 0 1015.8 0.5 68
2019-11-26 07:00:00 19.8 2 Sudeste 8 Sur 0 1015.6 0.3 69
2019-11-26 06:00:00 19.7 3 Sur 8 Sur 0 1015.3 -0.4 70
2019-11-26 05:00:00 19.9 0 Calma 9 Sur 0 1015.3 -1 68
2019-11-26 04:00:00 19.7 3 Sur 9 Sudeste 0 1015.3 -1.4 67
2019-11-26 03:00:00 19.6 3 Sur 9 Sudeste 0 1015.7 -1.1 68
2019-11-26 02:00:00 19.7 3 Sur 12 Sur 0 1016.3 -1 68
2019-11-26 01:00:00 19.4 6 Sur 11 Sur 0 1016.7 -0.5 68
2019-11-26 00:00:00 20 3 Sur 8 Sur 0 1016.8 -0.4 66
2019-11-25 23:00:00 20.2 2 Sudoeste 6 Sur 0 1017.3 0.5 70
2019-11-25 22:00:00 20.5 0 Calma 7 Este 0 1017.2 0.8 72
2019-11-25 21:00:00 20.7 0 Calma 19 Este 0 1017.2 1.1 74
2019-11-25 20:00:00 20.9 11 Nordeste 19 Este 0 1016.8 0.6 75
2019-11-25 19:00:00 20.9 14 Este 24 Nordeste 0 1016.4 0.4 75
2019-11-25 18:00:00 21.3 15 Nordeste 22 Nordeste 0 1016.1 0.2 76
2019-11-25 17:00:00 21.4 12 Nordeste 18 Nordeste 0 1016.2 0 67
2019-11-25 16:00:00 22.2 10 Nordeste 17 Nordeste 0 1016 -1.5 63
2019-11-25 15:00:00 24.2 10 Nordeste 15 Nordeste 0 1015.9 -2.4 55
2019-11-25 14:00:00 23.8 9 Nordeste 14 Nordeste 0 1016.2 -2.5 54
2019-11-25 13:00:00 21.6 0 Calma 9 Nordeste 0 1017.5 -1.1 57
2019-11-25 12:00:00 21.1 3 Oeste 8 Noroeste 0 1018.3 0.4 58
2019-11-25 11:00:00 21 0 Calma 8 Nordeste 0 1018.7 1.3 60
2019-11-25 10:00:00 20.7 8 Nordeste 17 Este 0 1018.6 1.7 64
2019-11-25 09:00:00 20.3 9 Este 14 Este 0 1017.9 1.3 65
2019-11-25 08:00:00 19.4 5 Sur 10 Sur 0 1017.4 0.6 65
2019-11-25 07:00:00 19.3 4 Sur 16 Sur 0 1016.9 0 64
2019-11-25 06:00:00 19.2 8 Sur 15 Sur 0 1016.6 -0.8 62
2019-11-25 05:00:00 19 7 Sur 19 Sudeste 0 1016.8 -1.1 64
2019-11-25 04:00:00 18.6 8 Sudeste 17 Sudeste 0 1016.9 -1.3 66
2019-11-25 03:00:00 18.7 6 Sur 14 Sur 0 1017.4 -0.9 67
2019-11-25 02:00:00 18.6 8 Sur 18 Sudeste 0 1017.9 -0.4 67
2019-11-25 01:00:00 18.3 6 Sur 14 Sur 0 1018.2 -0.2 69
2019-11-25 00:00:00 18.5 7 Sudeste 12 Sudeste 0 1018.3 0.4 70
2019-11-24 23:00:00 19.2 8 Sudeste 15 Sudeste 0 1018.3 0.6 68
2019-11-24 22:00:00 18.8 7 Sur 14 Sudeste 0 1018.4 1.4 68
2019-11-24 21:00:00 19.6 7 Sudeste 13 Sur 0 1017.9 1.3 65
2019-11-24 20:00:00 19.8 6 Sur 18 Sudeste 0 1017.7 1.2 68
2019-11-24 19:00:00 20.6 6 Este 24 Nordeste 0 1017 0.7 74
2019-11-24 18:00:00 21.6 10 Nordeste 21 Nordeste 0 1016.6 0.3 77
2019-11-24 17:00:00 21.8 18 Nordeste 23 Nordeste 0 1016.5 -0.1 72
2019-11-24 16:00:00 22.8 15 Nordeste 22 Nordeste 0 1016.3 -0.9 67
2019-11-24 15:00:00 23.5 15 Nordeste 22 Nordeste 0 1016.3 -1.8 67
2019-11-24 14:00:00 23.6 17 Nordeste 23 Nordeste 0 1016.6 -2 72
2019-11-24 13:00:00 23.3 14 Nordeste 24 Este 0 1017.2 -1.2 71
2019-11-24 12:00:00 23.8 14 Nordeste 18 Nordeste 0 1018.1 -0.2 69
2019-11-24 11:00:00 22.9 17 Nordeste 24 Nordeste 0 1018.6 0.2 73
2019-11-24 10:00:00 23 4 Este 9 Nordeste 0 1018.4 0.9 67
2019-11-24 09:00:00 20.4 5 Sur 14 Sudeste 0 1018.3 1.2 71
2019-11-24 08:00:00 18.6 7 Sur 14 Sur 0 1018.4 1.4 79
2019-11-24 07:00:00 18.1 6 Sur 17 Sudeste 0 1017.5 0.4 76
2019-11-24 06:00:00 18.1 8 Sur 13 Sur 0 1017.1 0 78
2019-11-24 05:00:00 18.6 7 Sur 13 Sur 0 1017 -0.4 74
2019-11-24 04:00:00 19 6 Sur 12 Sur 0 1017.1 -0.8 71
2019-11-24 03:00:00 19.2 4 Sur 13 Sur 0 1017.1 -1.1 68
2019-11-24 02:00:00 18.8 9 Sur 17 Sudeste 0 1017.4 -1 63
2019-11-24 01:00:00 19 7 Sur 13 Sur 0 1017.9 0.1 62
2019-11-24 00:00:00 19.1 5 Sur 10 Sur 0 1018.2 0.3 67
2019-11-23 23:00:00 19.1 6 Sur 12 Sur 0 1018.4 0.9 73
2019-11-23 22:00:00 19.6 5 Sur 12 Sur 0 1017.8 1.1 75
2019-11-23 21:00:00 20.3 4 Sudeste 11 Sur 0 1017.9 2.2 74
2019-11-23 20:00:00 21 4 Sur 14 Nordeste 0 1017.5 2.1 80
2019-11-23 19:00:00 22.1 11 Nordeste 17 Nordeste 0 1016.7 1.8 88
2019-11-23 18:00:00 22.7 6 Este 15 Nordeste 0 1015.7 0.5 82
2019-11-23 17:00:00 24.2 11 Nordeste 15 Nordeste 0 1015.4 -0.2 70
2019-11-23 16:00:00 25.4 9 Nordeste 12 Nordeste 0 1014.9 -1.6 66
2019-11-23 15:00:00 25.9 8 Nordeste 13 Norte 0 1015.2 -1.5 63
2019-11-23 14:00:00 24.6 7 Nordeste 16 Nordeste 0 1015.6 -1.8 63
2019-11-23 13:00:00 24.1 11 Nordeste 17 Norte 0 1016.5 -1.4 67
2019-11-23 12:00:00 26.2 5 Nordeste 18 Nordeste 0 1016.7 -0.9 58
2019-11-23 11:00:00 25.4 3 Nordeste 9 Nordeste 0 1017.4 0 62
2019-11-23 10:00:00 23 0 Calma 6 Sur 0 1017.9 1.2 70
2019-11-23 09:00:00 21.5 4 Sur 15 Sudeste 0 1017.6 1.1 76
2019-11-23 08:00:00 20.3 9 Sur 18 Sur 0 1017.4 1.2 78
2019-11-23 07:00:00 20.3 4 Sur 15 Sur 0 1016.7 0.3 80
2019-11-23 06:00:00 19.9 6 Sur 12 Sur 0 1016.5 -0.1 85
2019-11-23 05:00:00 19.8 5 Sur 9 Sur 0 1016.2 -0.5 76
2019-11-23 04:00:00 19.5 6 Sur 10 Sur 0 1016.4 -0.2 78
2019-11-23 03:00:00 19.5 4 Sur 9 Sudeste 0 1016.6 -0.1 80
2019-11-23 02:00:00 19.6 2 Sur 7 Sur 0 1016.7 0.3 77
2019-11-23 01:00:00 19.9 3 Sur 6 Sur 0 1016.6 0 74
2019-11-23 00:00:00 20.3 2 Sur 7 Sur 0 1016.7 0.5 71
2019-11-22 23:00:00 20.3 3 Sur 9 Sur 0 1016.4 1.2 72
2019-11-22 22:00:00 19.9 5 Sur 10 Sur 0 1016.6 2 76
2019-11-22 21:00:00 20.6 2 Sur 7 Sur 0 1016.2 2.5 75
2019-11-22 20:00:00 21 3 Sur 9 Sudoeste 0 1015.2 1.4 74
2019-11-22 19:00:00 21.6 3 Sur 10 Noroeste 0 1014.6 0.8 72
2019-11-22 18:00:00 22 5 Noroeste 10 Noroeste 0 1013.7 0.5 72
2019-11-22 17:00:00 22.9 3 Oeste 13 Noroeste 0 1013.8 -0.1 67
2019-11-22 16:00:00 22.3 8 Noroeste 13 Norte 0 1013.8 -1 68
2019-11-22 15:00:00 22.9 3 Noroeste 7 Norte 0 1013.2 -2.1 64
2019-11-22 14:00:00 22.8 4 Norte 8 Norte 0 1013.9 -1.8 65
2019-11-22 13:00:00 22.6 3 Norte 9 Noroeste 0 1014.8 -1 66
2019-11-22 12:00:00 22.5 0 Calma 9 Noroeste 0 1015.3 0.1 70
2019-11-22 11:00:00 22.3 0 Calma 6 Norte 0 1015.7 0.9 71
2019-11-22 10:00:00 21.3 0 Calma 6 Sur 0 1015.8 1.6 80
2019-11-22 09:00:00 20.1 3 Sur 14 Sur 0 1015.2 1.7 81
2019-11-22 08:00:00 19 7 Sur 18 Sur 0 1014.8 1.4 87
2019-11-22 07:00:00 18.9 7 Sur 18 Sur 0 1014.2 0.8 93
2019-11-22 06:00:00 18.9 9 Sur 15 Sur 0.2 1013.5 0 95
2019-11-22 05:00:00 18.9 3 Sur 11 Sur 1 1013.4 -0.1 97
2019-11-22 04:00:00 19.4 3 Sur 22 Sudoeste 0.7 1013.4 -0.1 97
2019-11-22 03:00:00 20.3 5 Oeste 15 Oeste 0.9 1013.5 0 97
2019-11-22 02:00:00 21 8 Oeste 16 Noroeste 0 1013.5 0.2 94
2019-11-22 01:00:00 21 6 Sudoeste 17 Oeste 0 1013.5 0 93
2019-11-22 00:00:00 21.1 5 Sudoeste 20 Oeste 0 1013.5 0.2 90
2019-11-21 23:00:00 21.4 0 Calma 5 Sur 0 1013.3 0.7 85
2019-11-21 22:00:00 21.7 0 Calma 5 Oeste 0 1013.5 1.2 83
2019-11-21 21:00:00 21.8 0 Calma 8 Oeste 0 1013.3 1 83
2019-11-21 20:00:00 21.7 0 Calma 11 Sudoeste 0 1012.6 1 83
2019-11-21 19:00:00 21.6 6 Oeste 21 Oeste 0 1012.3 0.7 84
2019-11-21 18:00:00 21.5 10 Oeste 23 Oeste 0 1012.3 0.6 84
2019-11-21 17:00:00 22 7 Oeste 17 Oeste 0 1011.6 -0.3 74
2019-11-21 16:00:00 22 5 Noroeste 12 Sudoeste 0 1011.6 -1.7 68
2019-11-21 15:00:00 22.2 5 Noroeste 16 Noroeste 0 1011.7 -2.2 65
2019-11-21 14:00:00 22.2 10 Oeste 17 Oeste 0 1011.9 -2.2 66
2019-11-21 13:00:00 22.4 10 Oeste 17 Oeste 0 1013.3 -1.2 61
2019-11-21 12:00:00 22.6 3 Noroeste 10 Noroeste 0 1013.9 -0.5 60
2019-11-21 11:00:00 22 3 Noroeste 9 Noroeste 0 1014.1 -0.1 61
2019-11-21 10:00:00 22 0 Calma 6 Sur 0 1014.5 0.4 61
2019-11-21 09:00:00 20.1 3 Sur 9 Sur 0 1014.4 1.1 70
2019-11-21 08:00:00 19.6 5 Sur 10 Sur 0 1014.2 0.8 75
2019-11-21 07:00:00 -- -- -- -- -- -- -- -- --
2019-11-21 06:00:00 -- -- -- -- -- -- -- -- --
2019-11-21 05:00:00 -- -- -- -- -- -- -- -- --
2019-11-21 04:00:00 -- -- -- -- -- -- -- -- --
2019-11-21 03:00:00 -- -- -- -- -- -- -- -- --
2019-11-21 02:00:00 -- -- -- -- -- -- -- -- --
2019-11-21 01:00:00 -- -- -- -- -- -- -- -- --
2019-11-21 00:00:00 -- -- -- -- -- -- -- -- --
2019-11-20 23:00:00 -- -- -- -- -- -- -- -- --
2019-11-20 22:00:00 -- -- -- -- -- -- -- -- --
2019-11-20 21:00:00 -- -- -- -- -- -- -- -- --
2019-11-20 20:00:00 -- -- -- -- -- -- -- -- --
2019-11-20 19:00:00 -- -- -- -- -- -- -- -- --
2019-11-20 18:00:00 20.8 3 Noroeste 18 Noroeste 0 1014.2 0.8 89
2019-11-20 17:00:00 21 11 Noroeste 19 Noroeste 0 1013.7 -0.5 86
2019-11-20 16:00:00 21.9 10 Oeste 19 Noroeste 0 1013.5 -1.3 77
2019-11-20 15:00:00 22.2 10 Oeste 17 Noroeste 0 1013.4 -2 74
2019-11-20 14:00:00 21.9 8 Noroeste 14 Oeste 0 1014.2 -1.5 73
2019-11-20 13:00:00 21.5 6 Noroeste 13 Noroeste 0 1014.8 -1.4 76
2019-11-20 12:00:00 21.7 5 Noroeste 11 Noroeste 0 1015.4 -0.7 74
2019-11-20 11:00:00 20.9 5 Noroeste 11 Noroeste 0 1015.7 0.1 75
2019-11-20 10:00:00 21.2 4 Sudoeste 10 Sur 0 1016.2 0.7 68
2019-11-20 09:00:00 19.3 3 Sur 10 Sur 0 1016.1 0.4 68
2019-11-20 08:00:00 17.4 8 Sur 15 Sudeste 0 1015.6 0 70
2019-11-20 07:00:00 17.1 6 Sur 12 Sur 0 1015.5 -0.3 72
2019-11-20 06:00:00 17 4 Sur 13 Sur 0 1015.7 -0.2 71
2019-11-20 05:00:00 17.3 5 Sur 12 Sur 0 1015.6 -0.7 63
2019-11-20 04:00:00 17.3 4 Sur 14 Sur 0 1015.8 -0.7 66
2019-11-20 03:00:00 17.5 8 Sur 14 Sur 0 1015.9 -0.9 66
2019-11-20 02:00:00 17.4 6 Sur 10 Sudeste 0 1016.3 -0.8 65
2019-11-20 01:00:00 17.4 5 Sur 9 Sur 0 1016.5 -0.6 64
2019-11-20 00:00:00 17.7 5 Sur 12 Sudeste 0 1016.8 -0.4 62
2019-11-19 23:00:00 17.5 6 Sur 12 Sur 0 1017.1 0.5 63
2019-11-19 22:00:00 17.7 5 Sur 12 Sur 0 1017.1 0.9 66
2019-11-19 21:00:00 18.3 6 Sur 12 Sur 0 1017.2 1.3 68
2019-11-19 20:00:00 19.4 5 Sur 10 Sudeste 0 1016.6 0.5 70
2019-11-19 19:00:00 20.5 2 Sudoeste 7 Sudoeste 0 1016.2 0.1 71
2019-11-19 18:00:00 20.9 2 Noroeste 8 Norte 0 1015.9 -0.1 70
2019-11-19 17:00:00 21.4 3 Noroeste 8 Noroeste 0 1016.1 -0.7 67
2019-11-19 16:00:00 21.6 2 Norte 10 Noroeste 0 1016.1 -1.2 68
2019-11-19 15:00:00 21.6 3 Noroeste 9 Noroeste 0 1016 -2 69
2019-11-19 14:00:00 21.5 3 Noroeste 8 Nordeste 0 1016.8 -2.3 68
2019-11-19 13:00:00 22.2 4 Norte 10 Noroeste 0 1017.3 -1.9 67
2019-11-19 12:00:00 21.7 3 Noroeste 7 Noroeste 0 1018 -0.7 66
2019-11-19 11:00:00 21.8 0 Calma 6 Noroeste 0 1019.1 0.3 65
2019-11-19 10:00:00 20.8 0 Calma 6 Sudoeste 0 1019.2 0.4 64
2019-11-19 09:00:00 19.7 0 Calma 8 Sur 0 1018.7 0.1 68
2019-11-19 08:00:00 18.5 0 Calma 10 Sur 0 1018.8 0.6 68
2019-11-19 07:00:00 18.2 5 Sur 10 Sur 0 1018.8 0.5 71
2019-11-19 06:00:00 18 3 Sur 8 Sudoeste 0 1018.6 -0.1 77
2019-11-19 05:00:00 19 5 Nordeste 14 Sudeste 0 1018.2 -0.6 77
2019-11-19 04:00:00 18.4 2 Sur 12 Sur 0 1018.3 -1.2 68
2019-11-19 03:00:00 18.3 7 Sur 28 Sur 0 1018.7 -1.5 66
2019-11-19 02:00:00 17.5 7 Sur 17 Sur 0 1018.8 -1.3 67
2019-11-19 01:00:00 17.4 8 Sur 13 Sur 0 1019.5 -0.3 72
2019-11-19 00:00:00 17.8 8 Sur 19 Sur 0 1020.2 0.4 67
2019-11-18 23:00:00 17.7 7 Sur 16 Sur 0 1020.1 0.9 67
2019-11-18 22:00:00 18.2 7 Sur 17 Sur 0 1019.8 0.8 65
2019-11-18 21:00:00 18.1 8 Sur 15 Sudeste 0 1019.8 1.1 72
2019-11-18 20:00:00 20 6 Este 18 Este 0 1019.2 0.8 73
2019-11-18 19:00:00 20.3 12 Este 22 Nordeste 0 1019 1 77
2019-11-18 18:00:00 20.7 16 Nordeste 29 Nordeste 0 1018.7 0.9 74
2019-11-18 17:00:00 21 26 Nordeste 31 Nordeste 0 1018.4 0.4 71
2019-11-18 16:00:00 21.2 24 Nordeste 32 Nordeste 0 1018 -0.5 74
2019-11-18 15:00:00 22.1 19 Nordeste 32 Este 0 1017.8 -1.5 72
2019-11-18 14:00:00 22.7 25 Nordeste 34 Nordeste 0 1018 -1.9 72
2019-11-18 13:00:00 23.4 21 Nordeste 26 Nordeste 0 1018.5 -1.8 61
2019-11-18 12:00:00 23 14 Nordeste 25 Nordeste 0 1019.3 -1.2 61
2019-11-18 11:00:00 22.6 9 Nordeste 21 Nordeste 0 1019.9 -0.5 61
2019-11-18 10:00:00 21.4 7 Nordeste 11 Nordeste 0 1020.3 0.8 66
2019-11-18 09:00:00 19.3 5 Sudeste 13 Sur 0 1020.5 1.3 68
2019-11-18 08:00:00 18.4 4 Sur 24 Nordeste 0.1 1020.4 1.5 76
2019-11-18 07:00:00 19 11 Este 33 Nordeste 0 1019.5 0.6 69
2019-11-18 06:00:00 18.9 5 Sudeste 12 Sudeste 0 1019.2 -0.1 63
2019-11-18 05:00:00 19.4 4 Sudeste 18 Nordeste 0 1018.9 -0.3 65
2019-11-18 04:00:00 19.6 5 Este 12 Este 0 1018.9 -0.8 62
2019-11-18 03:00:00 19.8 10 Nordeste 18 Nordeste 0 1019.3 -0.7 64
2019-11-18 02:00:00 19.9 9 Sudeste 21 Sudeste 0 1019.2 -0.8 57
2019-11-18 01:00:00 19.7 7 Sudeste 21 Sudeste 0 1019.7 -0.7 58
2019-11-18 00:00:00 19.7 8 Sudeste 16 Sudeste 0 1020 -0.6 59
2019-11-17 23:00:00 19.8 9 Sudeste 18 Sudeste 0 1020 -0.1 59
2019-11-17 22:00:00 19.5 9 Sudeste 19 Sudeste 0 1020.4 1 62
2019-11-17 21:00:00 18.6 2 Este 19 Sudeste 0.1 1020.6 1.9 80
2019-11-17 20:00:00 18.6 5 Sudeste 21 Este 0.1 1020.1 1.9 78
2019-11-17 19:00:00 19.2 16 Este 37 Nordeste 0 1019.4 1.6 72
2019-11-17 18:00:00 20.3 24 Nordeste 36 Nordeste 0 1018.7 0.5 68
2019-11-17 17:00:00 20.6 28 Nordeste 37 Nordeste 0 1018.2 -0.4 67
2019-11-17 16:00:00 21.2 28 Nordeste 35 Nordeste 0 1017.8 -1.3 66
2019-11-17 15:00:00 20.6 27 Este 42 Nordeste 0 1018.2 -1.9 71
2019-11-17 14:00:00 20.6 30 Nordeste 48 Nordeste 0 1018.6 -2.4 74
2019-11-17 13:00:00 21.5 30 Nordeste 39 Nordeste 0 1019.1 -2.3 61
2019-11-17 12:00:00 22.2 19 Nordeste 36 Nordeste 0 1020.1 -1 62
2019-11-17 11:00:00 20.5 15 Nordeste 31 Nordeste 0 1021 0.2 68
2019-11-17 10:00:00 19.4 14 Nordeste 42 Nordeste 0 1021.4 1.3 77
2019-11-17 09:00:00 19 3 Sudeste 12 Nordeste 0 1021.1 1.3 72
2019-11-17 08:00:00 17.8 4 Sudeste 28 Este 0 1020.8 1.2 80
2019-11-17 07:00:00 17.4 5 Sur 18 Sudeste 0 1020.1 0.4 81
2019-11-17 06:00:00 16.8 9 Sur 34 Nordeste 0 1019.8 0.3 90
2019-11-17 05:00:00 17.7 0 Calma 20 Este 0 1019.6 0.1 85
2019-11-17 04:00:00 17.8 19 Nordeste 42 Nordeste 0 1019.7 -0.1 89
2019-11-17 03:00:00 18.5 6 Sudeste 24 Este 0.1 1019.5 0.2 72
2019-11-17 02:00:00 18.2 5 Sudeste 19 Este 0 1019.5 0 78
2019-11-17 01:00:00 18.4 12 Este 27 Este 0.3 1019.8 0.3 81
2019-11-17 00:00:00 19.5 9 Sudeste 24 Nordeste 0 1019.3 -0.3 66
2019-11-16 23:00:00 19.4 8 Este 18 Sudeste 0 1019.5 0.1 68
2019-11-16 22:00:00 19.1 7 Sudeste 19 Este 0 1019.5 0.5 67
2019-11-16 21:00:00 19.5 9 Sudeste 19 Este 0 1019.6 1.6 71
2019-11-16 20:00:00 18.7 6 Sudeste 23 Nordeste 0 1019.4 1.7 80
2019-11-16 19:00:00 19.2 4 Sudeste 36 Nordeste 0 1019 1.2 77
2019-11-16 18:00:00 20.3 8 Este 35 Nordeste 0 1018 -0.5 67
2019-11-16 17:00:00 21.7 12 Este 25 Este 0 1017.7 -0.6 62
2019-11-16 16:00:00 20.4 5 Este 26 Este 0 1017.8 -0.3 66
2019-11-16 15:00:00 19.8 28 Nordeste 41 Nordeste 0 1018.5 -0.8 81
2019-11-16 14:00:00 20.5 9 Este 31 Nordeste 0 1018.3 -1.6 71
2019-11-16 13:00:00 23 10 Nordeste 20 Este 0 1018.1 -2.1 56
2019-11-16 12:00:00 21.3 9 Este 25 Este 0 1019.3 -0.8 60
2019-11-16 11:00:00 20.5 5 Sur 14 Sur 0 1019.9 0.3 61
2019-11-16 10:00:00 19.8 5 Sur 21 Sudeste 0 1020.2 1.1 69
2019-11-16 09:00:00 18.4 6 Sur 15 Sudeste 0 1020.1 1.7 74
2019-11-16 08:00:00 17.7 8 Sur 20 Sudeste 0.1 1019.6 1.4 79
2019-11-16 07:00:00 17.2 5 Sur 19 Sur 0 1019.1 0.7 85
2019-11-16 06:00:00 16.8 10 Sur 39 Nordeste 0 1018.4 0.1 84
2019-11-16 05:00:00 17.9 7 Este 28 Nordeste 0.1 1018.2 -0.1 84
2019-11-16 04:00:00 16.5 8 Sur 19 Sur 3.5 1018.4 -0.1 90
2019-11-16 03:00:00 17 7 Sur 17 Sudeste 0.3 1018.3 0 84
2019-11-16 02:00:00 17.7 6 Sudeste 17 Sur 0 1018.3 0 80
2019-11-16 01:00:00 17.4 6 Sur 21 Nordeste 0.6 1018.5 0.7 84
2019-11-16 00:00:00 18.9 15 Nordeste 30 Norte 0 1018.3 0.9 74
2019-11-15 23:00:00 17.7 4 Sur 17 Este 0.7 1018.3 1.2 83
2019-11-15 22:00:00 18.2 5 Sur 17 Sur 0 1017.8 1.5 77
2019-11-15 21:00:00 18.6 7 Sudeste 17 Sudeste 0 1017.4 1.7 71
2019-11-15 20:00:00 18.3 9 Sudeste 30 Nordeste 0 1017.1 1.2 80
2019-11-15 19:00:00 19.7 19 Nordeste 29 Este 0.1 1016.3 0.2 74
2019-11-15 18:00:00 19.8 13 Este 28 Nordeste 0 1015.7 -0.3 66
2019-11-15 17:00:00 20.3 23 Nordeste 32 Nordeste 0.1 1015.9 -0.4 68
2019-11-15 16:00:00 19.5 2 Sudeste 18 Sur 0 1016.1 -1 76
2019-11-15 15:00:00 20.2 9 Este 32 Este 0 1016 -1.5 76
2019-11-15 14:00:00 19.8 27 Nordeste 35 Nordeste 0.7 1016.3 -1.7 81
2019-11-15 13:00:00 19.5 17 Nordeste 43 Nordeste 0.2 1017.1 -0.5 85
2019-11-15 12:00:00 20.6 27 Nordeste 36 Nordeste 0.1 1017.5 0.4 73
2019-11-15 11:00:00 19.6 6 Sur 43 Este 0.4 1018 1.4 84
2019-11-15 10:00:00 20.3 19 Nordeste 32 Nordeste 0 1017.6 1.4 81
2019-11-15 09:00:00 20.3 23 Nordeste 31 Nordeste 0 1017.1 1.4 82
2019-11-15 08:00:00 19.7 12 Nordeste 26 Nordeste 1.7 1016.6 0.8 85
2019-11-15 07:00:00 19.2 6 Sur 20 Norte 0.1 1016.2 0.6 79
2019-11-15 06:00:00 20.1 6 Sudeste 13 Este 0 1015.7 -0.6 71
2019-11-15 05:00:00 19.8 2 Sur 13 Sudeste 0.1 1015.8 -0.8 71
2019-11-15 04:00:00 20.1 4 Sudeste 15 Sudeste 0 1015.6 -1.5 65
2019-11-15 03:00:00 19.9 8 Sudeste 39 Nordeste 0 1016.3 -0.9 68
2019-11-15 02:00:00 20.6 31 Nordeste 42 Este 0.1 1016.6 -0.3 76
2019-11-15 01:00:00 20.3 10 Sudeste 19 Sudeste 0 1017.1 0.6 71
2019-11-15 00:00:00 19.7 7 Sudeste 43 Nordeste 0.4 1017.2 1 78
2019-11-14 23:00:00 20.8 13 Nordeste 23 Este 0 1016.9 1.1 73
2019-11-14 22:00:00 20.9 7 Este 14 Sudeste 0 1016.5 1.1 62
2019-11-14 21:00:00 21 5 Este 19 Nordeste 0 1016.2 1.4 70
2019-11-14 20:00:00 21 9 Este 40 Este 0 1015.8 1.2 70
2019-11-14 19:00:00 20.9 29 Nordeste 40 Este 0 1015.4 1.1 78
2019-11-14 18:00:00 21.8 18 Nordeste 36 Nordeste 0 1014.8 0.5 71
2019-11-14 17:00:00 21.8 32 Nordeste 43 Nordeste 0 1014.6 -0.2 70
2019-11-14 16:00:00 22.6 26 Nordeste 35 Nordeste 0 1014.3 -1.2 71
2019-11-14 15:00:00 22.9 18 Nordeste 25 Nordeste 0 1014.3 -2.1 68
2019-11-14 14:00:00 22.6 14 Nordeste 40 Este 0.1 1014.8 -2.1 61
2019-11-14 13:00:00 21.8 31 Nordeste 40 Nordeste 0 1015.5 -1.7 71
2019-11-14 12:00:00 22.2 23 Nordeste 30 Nordeste 0 1016.4 -0.5 72
2019-11-14 11:00:00 21.6 17 Nordeste 25 Este 0.2 1016.9 1.3 77
2019-11-14 10:00:00 20.6 2 Sur 17 Sur 0 1017.2 2.1 83
2019-11-14 09:00:00 20.5 2 Este 26 Nordeste 0 1016.9 2.3 81
2019-11-14 08:00:00 20.6 2 Nordeste 29 Sudeste 0 1015.6 0.8 68
2019-11-14 07:00:00 21 10 Este 26 Sudeste 0 1015.1 0 65
2019-11-14 06:00:00 21.1 8 Sudeste 17 Sudeste 0 1014.6 -0.8 60
2019-11-14 05:00:00 20.6 7 Sudeste 13 Sudeste 0 1014.8 -1 63
2019-11-14 04:00:00 20.3 6 Sur 14 Sudeste 0 1015.1 -1.2 63
2019-11-14 03:00:00 20.6 6 Sudeste 13 Sudeste 0 1015.4 -1.3 66
2019-11-14 02:00:00 20.2 6 Sudeste 12 Sudeste 0 1015.8 -1.2 63
2019-11-14 01:00:00 20.4 7 Sudeste 13 Sudeste 0 1016.3 -0.9 64
2019-11-14 00:00:00 20.7 6 Este 21 Nordeste 0 1016.7 -0.4 68
2019-11-13 23:00:00 20.8 6 Sudeste 15 Este 0 1017 0.8 64
2019-11-13 22:00:00 20.8 9 Sudeste 28 Este 0 1017.2 1.1 66
2019-11-13 21:00:00 21 7 Sudeste 20 Sur 0 1017.1 0.7 68
2019-11-13 20:00:00 20.9 9 Este 28 Nordeste 0 1016.2 -0.1 67
2019-11-13 19:00:00 21.2 6 Este 29 Nordeste 0 1016.1 0 70
2019-11-13 18:00:00 21.4 20 Nordeste 32 Nordeste 0 1016.4 0.4 73
2019-11-13 17:00:00 21.7 20 Nordeste 37 Nordeste 0 1016.3 0.1 71
2019-11-13 16:00:00 22.4 24 Nordeste 34 Nordeste 0 1016.1 -1.1 69
2019-11-13 15:00:00 23.1 24 Nordeste 33 Nordeste 0 1016 -1.9 67
2019-11-13 14:00:00 23.6 26 Nordeste 32 Nordeste 0 1016.2 -2.6 67
2019-11-13 13:00:00 22.7 26 Nordeste 31 Nordeste 0 1017.2 -1.7 69
2019-11-13 12:00:00 22.8 19 Nordeste 26 Nordeste 0 1017.9 -0.6 68
2019-11-13 11:00:00 22.2 13 Este 23 Este 0 1018.8 0.4 69
2019-11-13 10:00:00 21.6 12 Este 30 Nordeste 0 1018.9 1.5 72
2019-11-13 09:00:00 20.6 2 Sudeste 17 Sudeste 0 1018.5 1.5 68
2019-11-13 08:00:00 19.4 8 Sudeste 16 Sudeste 0 1018.4 1.5 71
2019-11-13 07:00:00 19.1 8 Sudeste 15 Sur 0 1017.4 0.9 73
2019-11-13 06:00:00 18.7 8 Sudeste 15 Sur 0 1017 0.6 72
2019-11-13 05:00:00 18.5 6 Sudeste 14 Sur 0 1016.9 0.2 72
2019-11-13 04:00:00 18.6 7 Sur 16 Sur 0 1016.5 -0.6 73
2019-11-13 03:00:00 18.5 8 Sur 14 Sur 0 1016.4 -1.1 72
2019-11-13 02:00:00 18.3 7 Sur 16 Sudeste 0 1016.7 -0.6 77
2019-11-13 01:00:00 18.6 6 Sur 13 Sur 0 1017.1 -0.4 78
2019-11-13 00:00:00 19.2 6 Sudeste 16 Sur 0 1017.5 -0.2 75
2019-11-12 23:00:00 19.6 8 Sudeste 19 Este 0 1017.3 0.3 71
2019-11-12 22:00:00 20.7 12 Este 26 Este 0 1017.5 0.7 76
2019-11-12 21:00:00 20.7 7 Este 25 Este 0 1017.7 0.7 71
2019-11-12 20:00:00 21 22 Este 32 Este 0 1017 -0.1 79
2019-11-12 19:00:00 21 15 Este 23 Este 0.1 1016.8 -0.2 83
2019-11-12 18:00:00 21.2 13 Nordeste 40 Este 0 1017 0.3 90
2019-11-12 17:00:00 21.3 5 Este 24 Nordeste 0.4 1017.1 -0.9 85
2019-11-12 16:00:00 21.7 11 Nordeste 31 Nordeste 0 1017 -1.6 87
2019-11-12 15:00:00 23.2 18 Nordeste 27 Nordeste 0 1016.7 -2.5 77
2019-11-12 14:00:00 20.6 13 Este 36 Nordeste 0 1018 -2.2 89
2019-11-12 13:00:00 22.2 23 Nordeste 38 Nordeste 0 1018.6 -1.2 79
2019-11-12 12:00:00 22.3 15 Nordeste 23 Este 0 1019.2 -0.1 80
2019-11-12 11:00:00 20.6 9 Este 32 Nordeste 0.3 1020.2 1.1 89
2019-11-12 10:00:00 21.2 12 Nordeste 26 Nordeste 0 1019.8 1 77
2019-11-12 09:00:00 21.3 11 Este 21 Este 0 1019.3 0.8 76
2019-11-12 08:00:00 20.4 14 Este 36 Nordeste 0 1019.1 0.5 77
2019-11-12 07:00:00 20 9 Este 27 Nordeste 0 1018.8 0 82
2019-11-12 06:00:00 20.3 5 Sudeste 10 Sudeste 0 1018.5 -0.8 76
2019-11-12 05:00:00 20.5 6 Este 24 Nordeste 0 1018.6 -1.1 78
2019-11-12 04:00:00 20.2 3 Sur 13 Sudeste 0 1018.8 -1.5 72
2019-11-12 03:00:00 20.8 8 Este 26 Este 0 1019.3 -1.2 72
2019-11-12 02:00:00 20.8 7 Este 15 Este 0 1019.7 -1.3 76
2019-11-12 01:00:00 20.9 7 Sudeste 27 Nordeste 0 1020.3 -0.9 76
2019-11-12 00:00:00 20.7 8 Este 16 Este 0 1020.5 -0.8 78
2019-11-11 23:00:00 20.3 9 Sudeste 24 Nordeste 0 1021 -0.2 80
2019-11-11 22:00:00 20.5 5 Sudeste 22 Nordeste 0 1021.2 0.3 77
2019-11-11 21:00:00 20.5 9 Sudeste 29 Este 0 1021.3 1 77
2019-11-11 20:00:00 20.8 6 Este 20 Nordeste 0 1021.2 0.5 78
2019-11-11 19:00:00 20.6 6 Sudeste 30 Nordeste 0.1 1020.9 0.5 79
2019-11-11 18:00:00 21.4 3 Este 19 Este 0 1020.3 0 77
2019-11-11 17:00:00 20.9 19 Nordeste 35 Nordeste 0 1020.7 -0.4 79
2019-11-11 16:00:00 21.5 28 Este 39 Este 0 1020.4 -0.9 73
2019-11-11 15:00:00 22.6 18 Este 37 Nordeste 0 1020.3 -1.6 66
2019-11-11 14:00:00 22.2 25 Nordeste 40 Nordeste 0 1021.1 -1.7 67
2019-11-11 13:00:00 23.8 26 Nordeste 38 Nordeste 0 1021.3 -2 64
2019-11-11 12:00:00 23.2 27 Nordeste 35 Nordeste 0 1021.9 -1.7 66
2019-11-11 11:00:00 23.1 15 Nordeste 29 Este 0 1022.8 -0.1 67
2019-11-11 10:00:00 21.4 6 Sudeste 33 Este 0 1023.3 1.2 70
2019-11-11 09:00:00 20.9 8 Este 23 Este 0 1023.6 1.3 70
2019-11-11 08:00:00 20.1 6 Sudeste 20 Este 0 1022.9 0.7 63
2019-11-11 07:00:00 20.5 15 Este 28 Sudeste 0 1022.1 -0.2 68
2019-11-11 06:00:00 20.2 7 Sudeste 20 Este 0 1022.3 -0.4 65
2019-11-11 05:00:00 20.6 6 Sudeste 18 Nordeste 0 1022.2 -0.9 62
2019-11-11 04:00:00 20.7 12 Este 25 Este 0 1022.3 -0.9 70
2019-11-11 03:00:00 21.2 9 Sudeste 20 Sudeste 0 1022.7 -0.9 62
2019-11-11 02:00:00 21 4 Sudeste 22 Nordeste 0 1023.1 -0.8 65
2019-11-11 01:00:00 20.9 10 Este 19 Sudeste 0 1023.2 -0.4 68
2019-11-11 00:00:00 20.8 10 Este 31 Nordeste 0 1023.6 0.3 68
2019-11-10 23:00:00 20.6 8 Sudeste 24 Nordeste 0 1023.9 1.2 65
2019-11-10 22:00:00 21 19 Nordeste 33 Nordeste 0 1023.6 1.7 73
2019-11-10 21:00:00 21.2 24 Este 39 Nordeste 0 1023.3 1.7 77
2019-11-10 20:00:00 21.4 29 Nordeste 44 Nordeste 0 1022.7 1.9 83
2019-11-10 19:00:00 21.7 25 Nordeste 41 Nordeste 0 1021.9 1.9 81
2019-11-10 18:00:00 21.9 28 Nordeste 45 Nordeste 0 1021.6 1.4 83
2019-11-10 17:00:00 22.8 33 Nordeste 48 Nordeste 0 1020.8 -0.1 76
2019-11-10 16:00:00 23.7 37 Nordeste 51 Nordeste 0 1020 -1.5 65
2019-11-10 15:00:00 23.2 36 Nordeste 50 Nordeste 0 1020.2 -2.7 66
2019-11-10 14:00:00 23.6 33 Nordeste 46 Nordeste 0 1020.9 -2.5 65
2019-11-10 13:00:00 23.3 32 Nordeste 46 Nordeste 0 1021.5 -1.9 61
2019-11-10 12:00:00 23.2 26 Nordeste 35 Nordeste 0 1022.9 -0.6 62
2019-11-10 11:00:00 22.6 26 Nordeste 38 Este 0 1023.4 0.3 61
2019-11-10 10:00:00 21.6 23 Este 35 Nordeste 0 1023.4 1.2 66
2019-11-10 09:00:00 20.8 8 Este 21 Norte 0 1023.5 1.4 65
2019-11-10 08:00:00 19.6 8 Sudeste 21 Sudeste 0 1023.1 1 70
2019-11-10 07:00:00 19.9 8 Sudeste 21 Sur 0 1022.2 -0.1 66
2019-11-10 06:00:00 19.9 7 Sudeste 23 Sudeste 0 1022.1 -0.6 66
2019-11-10 05:00:00 19.7 9 Sudeste 23 Este 0.1 1022.1 -1 71
2019-11-10 04:00:00 20.2 20 Este 40 Nordeste 0 1022.3 -1.5 73
2019-11-10 03:00:00 19.7 7 Este 19 Sudeste 0 1022.7 -1 70
2019-11-10 02:00:00 19.5 8 Sudeste 18 Sur 0 1023.1 -0.7 72
2019-11-10 01:00:00 18.3 8 Sudeste 29 Sur 0.2 1023.8 0.4 83
2019-11-10 00:00:00 19.5 8 Sudeste 19 Sudeste 0 1023.7 0.7 71
2019-11-09 23:00:00 19.7 8 Este 32 Este 0 1023.8 0.9 71
2019-11-09 22:00:00 20.2 9 Este 27 Sudeste 0.1 1023.4 0.8 68
2019-11-09 21:00:00 19.4 8 Sudeste 23 Sudeste 0.1 1023 1.3 76
2019-11-09 20:00:00 19.9 10 Este 32 Este 0 1022.9 1.9 72
2019-11-09 19:00:00 19.7 8 Sudeste 24 Sudeste 0.9 1022.6 1.2 79
2019-11-09 18:00:00 20.7 10 Este 35 Nordeste 0 1021.7 0.8 71
2019-11-09 17:00:00 21.3 21 Este 33 Nordeste 0 1021 0 65
2019-11-09 16:00:00 20.5 8 Sudeste 40 Nordeste 0 1021.4 0 74
2019-11-09 15:00:00 21 35 Nordeste 45 Nordeste 0.3 1020.9 -1.2 77
2019-11-09 14:00:00 20.8 3 Sur 49 Nordeste 0 1021 -1.6 76
2019-11-09 13:00:00 22.9 17 Este 33 Nordeste 0 1021.4 -1 60
2019-11-09 12:00:00 22.7 13 Este 26 Este 0 1022.1 0.5 62
2019-11-09 11:00:00 21.3 4 Este 32 Nordeste 0 1022.6 1.6 67
2019-11-09 10:00:00 21.1 16 Nordeste 30 Nordeste 0 1022.4 1.9 70
2019-11-09 09:00:00 21 7 Este 22 Este 0 1021.6 1.6 61
2019-11-09 08:00:00 20.2 8 Sudeste 28 Este 0.1 1021 1.4 71
2019-11-09 07:00:00 20.3 9 Sudeste 32 Nordeste 0.1 1020.5 0.9 71
2019-11-09 06:00:00 20.5 4 Sur 20 Este 0 1020 0.3 62
2019-11-09 05:00:00 20.4 8 Este 20 Este 0 1019.6 -0.2 65
2019-11-09 04:00:00 20.4 6 Este 32 Nordeste 0 1019.6 -0.6 75
2019-11-09 03:00:00 20.9 24 Nordeste 33 Este 0 1019.7 -0.9 74
2019-11-09 02:00:00 21 11 Este 25 Nordeste 0 1019.8 -0.8 62
2019-11-09 01:00:00 20.9 8 Sudeste 16 Sudeste 0 1020.2 -0.2 54
2019-11-09 00:00:00 21 5 Sudeste 15 Nordeste 0 1020.6 0.9 58
2019-11-08 23:00:00 21.1 8 Sudeste 29 Nordeste 0 1020.6 1 58
2019-11-08 22:00:00 20.9 5 Sudeste 18 Nordeste 0 1020.4 1.4 62
2019-11-08 21:00:00 21.1 5 Nordeste 33 Nordeste 0 1019.7 1.6 64
2019-11-08 20:00:00 21.4 19 Este 34 Nordeste 0 1019.6 2.3 63
2019-11-08 19:00:00 21.4 21 Nordeste 47 Nordeste 0 1019 2.3 65
2019-11-08 18:00:00 21.5 34 Nordeste 54 Nordeste 0 1018.1 2.1 70
2019-11-08 17:00:00 21.8 44 Nordeste 59 Nordeste 0 1017.3 0.7 69
2019-11-08 16:00:00 22.1 41 Nordeste 57 Nordeste 0 1016.7 0.2 72
2019-11-08 15:00:00 23 44 Nordeste 60 Nordeste 0 1016 -0.9 68
2019-11-08 14:00:00 22.3 46 Nordeste 63 Nordeste 0 1016.6 -0.5 76
2019-11-08 13:00:00 23.3 41 Nordeste 59 Nordeste 0 1016.5 -0.7 72
2019-11-08 12:00:00 23.5 32 Nordeste 54 Nordeste 0 1016.9 -0.1 71
2019-11-08 11:00:00 23.9 22 Nordeste 28 Nordeste 0 1017.1 0 67
2019-11-08 10:00:00 22.8 3 Nordeste 18 Este 0 1017.2 0.6 65
2019-11-08 09:00:00 22.2 2 Sudeste 18 Sudeste 0 1017 0.9 63
2019-11-08 08:00:00 19.5 4 Sur 15 Sudeste 0 1017.1 1.1 66
2019-11-08 07:00:00 20.1 6 Sudeste 17 Sudeste 0 1016.6 0.5 65
2019-11-08 06:00:00 19.7 7 Sudeste 15 Sudeste 0 1016.1 -0.4 69
2019-11-08 05:00:00 19.2 6 Sudeste 13 Sur 0 1016 -0.4 78
2019-11-08 04:00:00 19.5 6 Sudeste 13 Sudeste 0 1016.1 -0.3 79
2019-11-08 03:00:00 19.7 5 Sur 14 Sur 0 1016.5 -0.1 80
2019-11-08 02:00:00 20 5 Sudeste 20 Sudeste 0 1016.4 -0.4 81
2019-11-08 01:00:00 20.1 6 Sudeste 17 Sudeste 0 1016.4 -0.3 85
2019-11-08 00:00:00 20.1 6 Este 17 Este 0 1016.6 0 89